createdAt,value
2018-05-01T00:01:49.986Z,44.30
2018-05-01T00:04:19.825Z,44.46
2018-05-01T00:06:49.873Z,44.19
2018-05-01T00:09:20.801Z,44.33
2018-05-01T00:11:50.709Z,44.45
2018-05-01T00:14:20.514Z,44.46
2018-05-01T00:16:50.257Z,44.47
2018-05-01T00:19:20.690Z,44.62
2018-05-01T00:21:51.104Z,44.39
2018-05-01T00:24:21.617Z,44.40
2018-05-01T00:26:52.213Z,44.53
2018-05-01T00:29:22.712Z,44.22
2018-05-01T00:31:52.879Z,44.62
2018-05-01T00:34:23.168Z,44.38
2018-05-01T00:36:53.034Z,44.54
2018-05-01T00:39:23.908Z,44.41
2018-05-01T00:41:53.608Z,44.66
2018-05-01T00:44:23.507Z,44.57
2018-05-01T00:46:53.421Z,44.60
2018-05-01T00:49:23.147Z,44.49
2018-05-01T00:51:52.950Z,44.32
2018-05-01T00:54:22.666Z,44.55
2018-05-01T00:56:52.564Z,44.69
2018-05-01T00:59:22.049Z,44.67
2018-05-01T01:01:53.142Z,44.63
2018-05-01T01:04:23.452Z,44.58
2018-05-01T01:06:53.090Z,44.61
2018-05-01T01:09:23.466Z,44.55
2018-05-01T01:11:54.991Z,44.43
2018-05-01T01:14:25.558Z,44.71
2018-05-01T01:16:55.779Z,44.59
2018-05-01T01:19:25.658Z,44.69
2018-05-01T01:21:55.504Z,44.76
2018-05-01T01:24:27.153Z,44.85
2018-05-01T01:26:56.735Z,44.61
2018-05-01T01:29:26.437Z,44.75
2018-05-01T01:31:56.623Z,44.83
2018-05-01T01:34:27.256Z,44.64
2018-05-01T01:36:55.507Z,44.71
2018-05-01T01:39:23.831Z,44.54
2018-05-01T01:41:52.200Z,44.59
2018-05-01T01:44:19.958Z,44.71
2018-05-01T01:46:48.905Z,44.86
2018-05-01T01:49:16.986Z,44.71
2018-05-01T01:51:45.088Z,44.70
2018-05-01T01:54:13.587Z,44.69
2018-05-01T01:56:42.732Z,44.56
2018-05-01T01:59:11.550Z,44.81
2018-05-01T02:01:41.946Z,44.70
2018-05-01T02:04:11.266Z,44.94
2018-05-01T02:06:41.345Z,44.86
2018-05-01T02:09:09.729Z,44.73
2018-05-01T02:11:38.000Z,44.59
2018-05-01T02:14:06.590Z,44.74
2018-05-01T02:16:34.886Z,44.81
2018-05-01T02:19:04.107Z,44.93
2018-05-01T02:21:32.136Z,44.84
2018-05-01T02:23:59.995Z,44.90
2018-05-01T02:26:28.169Z,44.69
2018-05-01T02:28:56.138Z,44.94
2018-05-01T02:31:24.108Z,44.81
2018-05-01T02:33:51.954Z,44.85
2018-05-01T02:36:19.664Z,45.02
2018-05-01T02:38:47.464Z,44.93
2018-05-01T02:41:16.314Z,45.03
2018-05-01T02:43:45.785Z,44.96
2018-05-01T02:46:13.959Z,45.03
2018-05-01T02:48:43.822Z,44.99
2018-05-01T02:51:12.364Z,45.10
2018-05-01T02:53:43.029Z,45.11
2018-05-01T02:56:11.870Z,45.07
2018-05-01T02:58:42.199Z,45.10
2018-05-01T03:01:11.957Z,45.12
2018-05-01T03:03:43.363Z,45.14
2018-05-01T03:06:13.273Z,45.18
2018-05-01T03:08:43.678Z,45.18
2018-05-01T03:11:11.650Z,45.13
2018-05-01T03:13:41.699Z,45.13
2018-05-01T03:16:09.715Z,45.13
2018-05-01T03:18:37.972Z,45.11
2018-05-01T03:21:06.756Z,45.08
2018-05-01T03:23:34.586Z,45.05
2018-05-01T03:26:02.929Z,45.08
2018-05-01T03:28:31.835Z,45.09
2018-05-01T03:31:00.004Z,45.13
2018-05-01T03:33:28.121Z,45.08
2018-05-01T03:36:04.663Z,45.09
2018-05-01T03:38:32.754Z,45.13
2018-05-01T03:41:01.125Z,45.02
2018-05-01T03:43:29.275Z,45.02
2018-05-01T03:45:57.208Z,45.09
2018-05-01T03:48:25.319Z,45.20
2018-05-01T03:50:53.843Z,45.16
2018-05-01T03:53:22.056Z,45.22
2018-05-01T03:55:50.060Z,45.18
2018-05-01T03:58:18.590Z,45.09
2018-05-01T04:00:46.847Z,45.15
2018-05-01T04:03:14.731Z,45.12
2018-05-01T04:05:44.228Z,44.88
2018-05-01T04:08:12.753Z,45.24
2018-05-01T04:10:43.074Z,45.13
2018-05-01T04:13:10.860Z,45.16
2018-05-01T04:15:41.262Z,45.20
2018-05-01T04:18:09.196Z,45.15
2018-05-01T04:20:37.403Z,45.13
2018-05-01T04:23:06.273Z,45.07
2018-05-01T04:25:35.224Z,45.00
2018-05-01T04:28:03.851Z,45.04
2018-05-01T04:30:32.057Z,45.14
2018-05-01T04:33:00.538Z,45.16
2018-05-01T04:35:28.495Z,44.95
2018-05-01T04:37:56.503Z,45.10
2018-05-01T04:40:24.914Z,45.02
2018-05-01T04:42:52.721Z,45.03
2018-05-01T04:45:20.433Z,45.16
2018-05-01T04:47:48.749Z,45.10
2018-05-01T04:50:16.939Z,45.00
2018-05-01T04:52:45.630Z,44.96
2018-05-01T04:55:14.220Z,45.08
2018-05-01T04:57:44.590Z,44.91
2018-05-01T05:00:13.044Z,44.92
2018-05-01T05:02:44.329Z,44.81
2018-05-01T05:05:12.331Z,44.99
2018-05-01T05:07:42.998Z,44.90
2018-05-01T05:10:12.001Z,44.69
2018-05-01T05:12:42.652Z,44.94
2018-05-01T05:15:10.694Z,44.78
2018-05-01T05:17:38.440Z,44.80
2018-05-01T05:20:06.543Z,44.67
2018-05-01T05:22:35.047Z,45.02
2018-05-01T05:25:03.468Z,44.98
2018-05-01T05:27:31.380Z,44.78
2018-05-01T05:29:59.634Z,44.91
2018-05-01T05:32:27.633Z,44.67
2018-05-01T05:34:55.466Z,44.97
2018-05-01T05:37:23.333Z,44.64
2018-05-01T05:39:51.220Z,45.03
2018-05-01T05:42:19.245Z,44.88
2018-05-01T05:44:47.339Z,44.92
2018-05-01T05:47:15.683Z,44.90
2018-05-01T05:49:44.105Z,44.95
2018-05-01T05:52:12.112Z,45.02
2018-05-01T05:54:40.164Z,44.90
2018-05-01T05:57:08.155Z,44.56
2018-05-01T05:59:37.025Z,44.90
2018-05-01T06:02:07.025Z,44.99
2018-05-01T06:04:34.803Z,44.82
2018-05-01T06:07:02.884Z,44.71
2018-05-01T06:09:31.348Z,44.87
2018-05-01T06:11:59.565Z,44.90
2018-05-01T06:14:27.376Z,44.67
2018-05-01T06:16:56.214Z,44.91
2018-05-01T06:19:24.781Z,44.84
2018-05-01T06:21:53.427Z,44.74
2018-05-01T06:24:22.518Z,44.80
2018-05-01T06:26:52.274Z,44.55
2018-05-01T06:29:20.367Z,44.58
2018-05-01T06:31:49.371Z,44.31
2018-05-01T06:34:17.178Z,44.37
2018-05-01T06:36:45.352Z,44.25
2018-05-01T06:39:13.837Z,44.12
2018-05-01T06:41:42.905Z,44.17
2018-05-01T06:44:11.431Z,44.05
2018-05-01T06:46:42.821Z,44.01
2018-05-01T06:49:11.298Z,43.93
2018-05-01T06:51:41.213Z,43.67
2018-05-01T06:54:09.932Z,43.79
2018-05-01T06:56:37.963Z,43.54
2018-05-01T06:59:06.067Z,43.52
2018-05-01T07:01:34.112Z,43.45
2018-05-01T07:04:01.925Z,43.32
2018-05-01T07:06:30.611Z,43.19
2018-05-01T07:08:58.692Z,43.29
2018-05-01T07:11:26.853Z,43.00
2018-05-01T07:13:54.685Z,42.81
2018-05-01T07:16:23.027Z,42.91
2018-05-01T07:18:52.407Z,42.68
2018-05-01T07:21:20.417Z,42.37
2018-05-01T07:23:48.641Z,42.61
2018-05-01T07:26:17.270Z,42.20
2018-05-01T07:28:45.131Z,42.44
2018-05-01T07:31:13.568Z,42.55
2018-05-01T07:33:42.695Z,42.36
2018-05-01T07:36:11.147Z,42.35
2018-05-01T07:38:42.183Z,42.18
2018-05-01T07:41:10.102Z,42.08
2018-05-01T07:43:37.998Z,42.02
2018-05-01T07:46:07.180Z,42.02
2018-05-01T07:48:35.346Z,41.85
2018-05-01T07:51:03.976Z,41.74
2018-05-01T07:53:32.501Z,41.75
2018-05-01T07:56:00.548Z,41.75
2018-05-01T07:58:28.592Z,41.35
2018-05-01T08:00:56.668Z,41.48
2018-05-01T08:03:24.614Z,33.29
2018-05-01T08:05:52.553Z,36.39
2018-05-01T08:08:21.180Z,35.53
2018-05-01T08:10:49.202Z,33.70
2018-05-01T08:13:17.355Z,34.97
2018-05-01T08:15:45.163Z,34.33
2018-05-01T08:18:12.961Z,34.14
2018-05-01T08:20:41.332Z,32.86
2018-05-01T08:23:09.562Z,35.26
2018-05-01T08:25:37.763Z,34.35
2018-05-01T08:28:06.105Z,34.88
2018-05-01T08:30:34.016Z,34.76
2018-05-01T08:33:02.192Z,33.95
2018-05-01T08:35:30.371Z,33.96
2018-05-01T08:37:58.553Z,33.79
2018-05-01T08:40:26.375Z,33.87
2018-05-01T08:42:54.261Z,33.40
2018-05-01T08:45:22.165Z,34.11
2018-05-01T08:47:50.069Z,33.63
2018-05-01T08:50:18.128Z,33.42
2018-05-01T08:52:46.370Z,33.59
2018-05-01T08:55:16.324Z,33.82
2018-05-01T08:57:44.065Z,33.60
2018-05-01T09:00:12.515Z,33.30
2018-05-01T09:02:41.907Z,33.68
2018-05-01T09:05:10.114Z,33.94
2018-05-01T09:07:38.529Z,33.80
2018-05-01T09:10:06.533Z,33.19
2018-05-01T09:12:34.532Z,33.43
2018-05-01T09:15:02.982Z,33.45
2018-05-01T09:17:30.914Z,34.06
2018-05-01T09:19:58.787Z,33.59
2018-05-01T09:22:26.961Z,33.43
2018-05-01T09:24:54.820Z,33.43
2018-05-01T09:27:23.751Z,33.85
2018-05-01T09:29:52.802Z,33.32
2018-05-01T09:32:21.125Z,33.08
2018-05-01T09:34:48.996Z,32.07
2018-05-01T09:37:17.677Z,33.40
2018-05-01T09:39:46.313Z,33.14
2018-05-01T09:42:14.098Z,33.12
2018-05-01T09:44:42.899Z,32.98
2018-05-01T09:47:10.857Z,33.31
2018-05-01T09:49:41.545Z,33.52
2018-05-01T09:52:10.071Z,33.57
2018-05-01T09:54:41.510Z,33.15
2018-05-01T09:57:11.932Z,33.09
2018-05-01T09:59:44.333Z,32.68
2018-05-01T10:02:14.078Z,32.72
2018-05-01T10:04:45.885Z,32.35
2018-05-01T10:07:16.221Z,32.41
2018-05-01T10:09:45.835Z,32.45
2018-05-01T10:12:16.716Z,32.39
2018-05-01T10:14:46.633Z,32.79
2018-05-01T10:17:17.267Z,32.93
2018-05-01T10:19:46.786Z,33.33
2018-05-01T10:22:16.567Z,33.11
2018-05-01T10:24:47.336Z,32.73
2018-05-01T10:27:18.236Z,32.62
2018-05-01T10:29:48.005Z,32.03
2018-05-01T10:32:17.496Z,33.39
2018-05-01T10:34:46.901Z,34.09
2018-05-01T10:37:17.006Z,33.46
2018-05-01T10:39:46.476Z,33.16
2018-05-01T10:42:15.943Z,32.76
2018-05-01T10:44:45.740Z,32.88
2018-05-01T10:47:15.727Z,33.45
2018-05-01T10:49:45.274Z,32.90
2018-05-01T10:52:15.072Z,33.58
2018-05-01T10:54:44.659Z,33.78
2018-05-01T10:57:14.460Z,34.28
2018-05-01T10:59:44.468Z,34.34
2018-05-01T11:02:14.421Z,34.78
2018-05-01T11:04:44.667Z,35.02
2018-05-01T11:07:14.253Z,35.30
2018-05-01T11:09:44.231Z,35.41
2018-05-01T11:12:13.802Z,35.57
2018-05-01T11:14:45.447Z,35.48
2018-05-01T11:17:15.247Z,35.42
2018-05-01T11:19:45.283Z,35.42
2018-05-01T11:22:15.163Z,35.47
2018-05-01T11:24:44.733Z,35.49
2018-05-01T11:27:14.594Z,35.48
2018-05-01T11:29:44.460Z,35.53
2018-05-01T11:32:13.927Z,35.59
2018-05-01T11:34:44.618Z,35.60
2018-05-01T11:37:15.094Z,35.65
2018-05-01T11:39:46.078Z,35.62
2018-05-01T11:42:15.566Z,35.69
2018-05-01T11:44:45.571Z,35.59
2018-05-01T11:47:15.167Z,35.51
2018-05-01T11:49:44.710Z,35.56
2018-05-01T11:52:14.191Z,35.61
2018-05-01T11:54:44.473Z,35.62
2018-05-01T11:57:15.115Z,35.69
2018-05-01T11:59:46.007Z,35.67
2018-05-01T12:02:15.618Z,35.69
2018-05-01T12:04:45.121Z,35.76
2018-05-01T12:07:14.551Z,35.85
2018-05-01T12:09:44.635Z,35.93
2018-05-01T12:12:14.119Z,35.89
2018-05-01T12:14:43.881Z,35.93
2018-05-01T12:17:13.392Z,35.81
2018-05-01T12:19:44.583Z,35.81
2018-05-01T12:22:14.446Z,35.84
2018-05-01T12:24:44.911Z,35.75
2018-05-01T12:27:14.421Z,35.80
2018-05-01T12:29:44.513Z,35.75
2018-05-01T12:32:14.210Z,35.80
2018-05-01T12:34:45.252Z,35.73
2018-05-01T12:37:14.898Z,35.79
2018-05-01T12:39:44.779Z,35.78
2018-05-01T12:42:15.024Z,35.74
2018-05-01T12:44:45.526Z,35.83
2018-05-01T12:47:15.363Z,35.90
2018-05-01T12:49:45.880Z,35.96
2018-05-01T12:52:15.809Z,35.99
2018-05-01T12:54:45.916Z,36.00
2018-05-01T12:57:17.486Z,36.07
2018-05-01T12:59:47.386Z,36.12
2018-05-01T13:02:17.488Z,36.05
2018-05-01T13:04:47.092Z,36.12
2018-05-01T13:07:16.606Z,36.07
2018-05-01T13:09:46.769Z,36.08
2018-05-01T13:12:16.899Z,36.02
2018-05-01T13:14:46.635Z,36.04
2018-05-01T13:17:16.207Z,36.05
2018-05-01T13:19:46.032Z,36.08
2018-05-01T13:22:15.971Z,36.08
2018-05-01T13:24:45.855Z,36.11
2018-05-01T13:27:15.930Z,36.12
2018-05-01T13:29:46.612Z,36.11
2018-05-01T13:32:16.995Z,36.12
2018-05-01T13:34:46.497Z,36.08
2018-05-01T13:37:16.080Z,36.07
2018-05-01T13:39:45.718Z,36.08
2018-05-01T13:42:16.150Z,36.04
2018-05-01T13:44:45.593Z,36.06
2018-05-01T13:47:15.077Z,36.11
2018-05-01T13:49:46.847Z,36.13
2018-05-01T13:52:16.441Z,36.11
2018-05-01T13:54:46.059Z,36.13
2018-05-01T13:57:16.522Z,36.21
2018-05-01T13:59:46.153Z,36.24
2018-05-01T14:02:17.963Z,36.24
2018-05-01T14:04:48.837Z,36.22
2018-05-01T14:07:18.416Z,36.19
2018-05-01T14:09:48.543Z,36.21
2018-05-01T14:12:18.038Z,36.25
2018-05-01T14:14:47.497Z,36.30
2018-05-01T14:17:17.389Z,36.33
2018-05-01T14:19:47.396Z,36.31
2018-05-01T14:22:17.207Z,36.31
2018-05-01T14:24:46.918Z,36.31
2018-05-01T14:27:16.666Z,36.30
2018-05-01T14:29:46.640Z,36.36
2018-05-01T14:32:16.231Z,36.36
2018-05-01T14:34:45.858Z,36.31
2018-05-01T14:37:19.182Z,36.35
2018-05-01T14:39:49.381Z,36.39
2018-05-01T14:42:18.927Z,36.39
2018-05-01T14:44:48.360Z,36.41
2018-05-01T14:47:18.323Z,36.34
2018-05-01T14:49:48.028Z,36.35
2018-05-01T14:52:18.321Z,36.36
2018-05-01T14:54:48.434Z,36.37
2018-05-01T14:57:18.049Z,36.36
2018-05-01T14:59:48.528Z,36.42
2018-05-01T15:02:18.035Z,36.42
2018-05-01T15:04:48.086Z,36.43
2018-05-01T15:07:17.701Z,36.42
2018-05-01T15:09:47.605Z,36.40
2018-05-01T15:12:17.468Z,36.41
2018-05-01T15:14:47.136Z,36.44
2018-05-01T15:17:17.597Z,36.41
2018-05-01T15:19:48.332Z,36.42
2018-05-01T15:22:18.087Z,36.44
2018-05-01T15:24:50.675Z,36.44
2018-05-01T15:27:20.877Z,36.44
2018-05-01T15:29:52.515Z,36.44
2018-05-01T15:32:22.382Z,36.45
2018-05-01T15:34:51.999Z,36.45
2018-05-01T15:37:21.539Z,36.48
2018-05-01T15:39:51.504Z,36.47
2018-05-01T15:42:21.704Z,36.47
2018-05-01T15:44:51.191Z,36.50
2018-05-01T15:47:21.054Z,36.50
2018-05-01T15:49:50.544Z,36.53
2018-05-01T15:52:21.005Z,36.60
2018-05-01T15:54:52.178Z,36.55
2018-05-01T15:57:22.601Z,36.53
2018-05-01T15:59:52.123Z,36.53
2018-05-01T16:02:22.071Z,36.52
2018-05-01T16:04:51.564Z,36.49
2018-05-01T16:07:22.174Z,36.47
2018-05-01T16:09:52.280Z,36.43
2018-05-01T16:12:21.710Z,36.39
2018-05-01T16:14:51.334Z,36.37
2018-05-01T16:17:21.105Z,36.36
2018-05-01T16:19:50.592Z,36.37
2018-05-01T16:22:21.030Z,36.38
2018-05-01T16:24:50.876Z,36.40
2018-05-01T16:27:20.637Z,36.40
2018-05-01T16:29:50.165Z,36.43
2018-05-01T16:32:20.131Z,36.42
2018-05-01T16:34:50.949Z,36.42
2018-05-01T16:37:21.682Z,36.45
2018-05-01T16:39:52.269Z,36.44
2018-05-01T16:42:34.860Z,36.41
2018-05-01T16:45:14.015Z,36.38
2018-05-01T16:47:59.644Z,36.38
2018-05-01T16:50:30.747Z,36.38
2018-05-01T16:53:00.575Z,36.40
2018-05-01T16:55:31.012Z,36.42
2018-05-01T16:58:00.457Z,36.44
2018-05-01T17:00:30.903Z,36.43
2018-05-01T17:03:00.324Z,36.49
2018-05-01T17:05:30.089Z,36.49
2018-05-01T17:07:59.541Z,36.50
2018-05-01T17:10:29.004Z,36.58
2018-05-01T17:12:58.785Z,36.69
2018-05-01T17:15:28.431Z,36.79
2018-05-01T17:17:58.889Z,36.85
2018-05-01T17:20:28.925Z,36.90
2018-05-01T17:22:59.130Z,36.94
2018-05-01T17:25:29.296Z,36.93
2018-05-01T17:27:59.110Z,36.99
2018-05-01T17:30:29.245Z,37.03
2018-05-01T17:32:58.766Z,37.06
2018-05-01T17:35:28.520Z,37.08
2018-05-01T17:37:58.247Z,37.11
2018-05-01T17:40:28.087Z,37.16
2018-05-01T17:42:58.217Z,37.22
2018-05-01T17:45:27.899Z,37.24
2018-05-01T17:47:57.328Z,37.26
2018-05-01T17:50:27.185Z,37.19
2018-05-01T17:52:56.680Z,37.24
2018-05-01T17:55:28.228Z,37.25
2018-05-01T17:57:58.077Z,37.37
2018-05-01T18:00:27.618Z,37.30
2018-05-01T18:02:57.151Z,37.42
2018-05-01T18:05:26.965Z,37.49
2018-05-01T18:07:56.727Z,37.56
2018-05-01T18:10:27.781Z,37.58
2018-05-01T18:12:57.878Z,37.65
2018-05-01T18:15:28.214Z,37.64
2018-05-01T18:17:57.775Z,37.71
2018-05-01T18:20:27.689Z,37.75
2018-05-01T18:22:57.495Z,37.82
2018-05-01T18:25:26.988Z,37.83
2018-05-01T18:27:56.687Z,37.84
2018-05-01T18:30:26.256Z,37.92
2018-05-01T18:32:56.015Z,37.95
2018-05-01T18:35:25.995Z,38.01
2018-05-01T18:37:55.507Z,38.07
2018-05-01T18:40:26.052Z,38.08
2018-05-01T18:42:56.782Z,38.15
2018-05-01T18:45:26.704Z,38.16
2018-05-01T18:47:56.421Z,38.18
2018-05-01T18:50:30.180Z,38.22
2018-05-01T18:52:55.603Z,38.25
2018-05-01T18:55:26.235Z,38.29
2018-05-01T18:57:57.541Z,38.33
2018-05-01T19:00:27.374Z,38.35
2018-05-01T19:02:57.067Z,38.37
2018-05-01T19:05:28.163Z,38.37
2018-05-01T19:08:15.296Z,38.42
2018-05-01T19:10:45.212Z,38.47
2018-05-01T19:13:17.078Z,38.44
2018-05-01T19:15:46.935Z,38.46
2018-05-01T19:18:20.008Z,38.50
2018-05-01T19:20:50.124Z,38.54
2018-05-01T19:23:20.780Z,38.53
2018-05-01T19:25:50.366Z,38.54
2018-05-01T19:28:21.787Z,38.56
2018-05-01T19:30:51.523Z,38.54
2018-05-01T19:33:21.312Z,38.60
2018-05-01T19:35:51.156Z,38.63
2018-05-01T19:38:21.034Z,38.66
2018-05-01T19:40:51.883Z,38.68
2018-05-01T19:43:22.088Z,38.70
2018-05-01T19:45:51.549Z,38.69
2018-05-01T19:48:21.174Z,38.71
2018-05-01T19:50:50.961Z,38.74
2018-05-01T19:53:20.833Z,38.75
2018-05-01T19:55:50.682Z,38.80
2018-05-01T19:58:21.037Z,38.77
2018-05-01T20:00:51.672Z,38.84
2018-05-01T20:03:21.772Z,38.84
2018-05-01T20:05:51.811Z,38.83
2018-05-01T20:08:22.470Z,38.83
2018-05-01T20:10:52.358Z,38.86
2018-05-01T20:13:23.743Z,38.86
2018-05-01T20:15:53.442Z,38.90
2018-05-01T20:18:23.102Z,38.91
2018-05-01T20:20:52.978Z,38.92
2018-05-01T20:23:22.639Z,38.94
2018-05-01T20:25:52.603Z,38.92
2018-05-01T20:28:23.123Z,38.98
2018-05-01T20:30:52.658Z,39.00
2018-05-01T20:33:25.159Z,39.03
2018-05-01T20:35:55.074Z,39.00
2018-05-01T20:38:24.711Z,39.07
2018-05-01T20:40:54.382Z,39.08
2018-05-01T20:43:24.421Z,39.10
2018-05-01T20:45:53.947Z,39.08
2018-05-01T20:48:23.436Z,39.10
2018-05-01T20:50:53.668Z,39.11
2018-05-01T20:53:23.345Z,39.09
2018-05-01T20:55:52.997Z,39.08
2018-05-01T20:58:23.546Z,39.08
2018-05-01T21:00:53.572Z,39.11
2018-05-01T21:03:23.355Z,39.17
2018-05-01T21:05:53.226Z,39.20
2018-05-01T21:08:22.875Z,39.24
2018-05-01T21:10:52.753Z,39.19
2018-05-01T21:13:22.643Z,39.28
2018-05-01T21:15:53.664Z,39.27
2018-05-01T21:18:23.488Z,39.28
2018-05-01T21:20:53.811Z,39.29
2018-05-01T21:23:23.911Z,39.30
2018-05-01T21:25:53.569Z,39.32
2018-05-01T21:28:24.258Z,39.32
2018-05-01T21:30:55.061Z,39.37
2018-05-01T21:33:24.592Z,39.35
2018-05-01T21:35:54.438Z,39.34
2018-05-01T21:38:24.314Z,39.37
2018-05-01T21:40:54.216Z,39.41
2018-05-01T21:43:24.171Z,39.39
2018-05-01T21:45:53.985Z,39.43
2018-05-01T21:48:24.014Z,39.42
2018-05-01T21:50:54.050Z,39.42
2018-05-01T21:53:23.839Z,39.45
2018-05-01T21:55:53.636Z,39.42
2018-05-01T21:58:23.803Z,39.46
2018-05-01T22:00:53.935Z,39.53
2018-05-01T22:03:23.699Z,39.52
2018-05-01T22:05:56.131Z,39.51
2018-05-01T22:08:26.198Z,39.51
2018-05-01T22:10:57.871Z,39.52
2018-05-01T22:13:28.880Z,39.55
2018-05-01T22:15:58.539Z,39.60
2018-05-01T22:18:27.996Z,39.59
2018-05-01T22:20:57.590Z,39.57
2018-05-01T22:23:27.190Z,39.58
2018-05-01T22:25:58.128Z,39.58
2018-05-01T22:28:27.614Z,39.60
2018-05-01T22:30:58.960Z,39.66
2018-05-01T22:33:28.760Z,39.65
2018-05-01T22:35:59.281Z,39.65
2018-05-01T22:38:29.441Z,39.64
2018-05-01T22:40:59.071Z,39.71
2018-05-01T22:43:28.551Z,39.70
2018-05-01T22:45:57.979Z,39.68
2018-05-01T22:48:28.451Z,39.74
2018-05-01T22:50:58.364Z,39.75
2018-05-01T22:53:28.161Z,39.74
2018-05-01T22:55:58.279Z,39.74
2018-05-01T22:58:29.405Z,39.76
2018-05-01T23:00:59.193Z,39.79
2018-05-01T23:03:29.538Z,39.77
2018-05-01T23:05:59.228Z,39.79
2018-05-01T23:08:29.005Z,39.83
2018-05-01T23:10:58.936Z,39.80
2018-05-01T23:13:28.707Z,39.80
2018-05-01T23:15:58.171Z,39.81
2018-05-01T23:18:28.145Z,39.84
2018-05-01T23:20:57.786Z,39.82
2018-05-01T23:23:27.572Z,39.87
2018-05-01T23:25:57.177Z,39.88
2018-05-01T23:28:27.833Z,39.91
2018-05-01T23:30:57.535Z,39.87
2018-05-01T23:33:28.766Z,39.88
2018-05-01T23:35:58.977Z,39.90
2018-05-01T23:38:29.641Z,39.88
2018-05-01T23:41:00.035Z,39.91
2018-05-01T23:43:30.307Z,39.90
2018-05-01T23:46:00.081Z,39.95
2018-05-01T23:48:29.851Z,39.95
2018-05-01T23:51:00.168Z,39.94
2018-05-01T23:53:30.255Z,39.96
2018-05-01T23:56:00.384Z,39.95
2018-05-01T23:58:30.482Z,39.98
